Latest Weather Observations for Devonport Airport

IDT60801

Issued at 10:01 am EST Wednesday 8 July 2015 (issued every 30 minutes, with the page automatically refreshed every 10 minutes)

About weather observations | Map of weather stations | Latest weather observations for TAS | Other Formats
Station Details ID: 091126 Name: DEVONPORT AIRPORT Lat: -41.17 Lon: 146.43 Height: 8.0 m
Data from the previous 72 hours. | See also: Recent months at Devonport Airport
Date/Time
EST
Temp
°C
App
Temp
°C
Dew
Point
Rel
Hum
%
Delta-T
°C
Wind Press
QNH
hPa
Press
MSL
hPa
Rain
since 9 am
mm
Dir
 
Spd
km/h
Gust
km/h
Spd
kts
Gust
kts
08/10:00am 5.1 - - - - S 20 26 11 14 1029.7 1029.7 0.0
08/09:30am 4.4 - - - - S 20 24 11 13 1029.7 1029.7 0.0
08/09:00am 3.2 - - - - S 17 22 9 12 1029.7 1029.7 0.0
08/08:30am 2.8 - - - - SSE 22 26 12 14 1029.5 1029.5 0.0
08/08:00am 2.2 - - - - S 20 26 11 14 1029.4 1029.4 0.0
08/07:30am 1.6 - - - - S 24 28 13 15 1029.1 1029.1 0.0
08/07:00am 1.9 - - - - S 19 22 10 12 1029.0 1029.0 0.0
08/06:30am 1.9 - - - - SSE 22 28 12 15 1028.8 1028.8 0.0
08/06:00am 1.3 - - - - S 19 24 10 13 1028.6 1028.6 0.0
08/05:30am 1.0 - - - - S 20 24 11 13 1028.4 1028.4 0.0
08/05:00am 1.3 - - - - S 20 24 11 13 1028.3 1028.3 0.0
08/04:30am 1.3 - - - - SSE 24 28 13 15 1028.3 1028.3 0.0
08/04:00am 1.1 - - - - S 20 24 11 13 1028.5 1028.5 0.0
08/03:30am 1.6 - - - - S 19 22 10 12 1028.4 1028.4 0.0
08/03:00am 1.9 - - - - SSE 20 26 11 14 1028.5 1028.5 0.0
08/02:30am 2.3 - - - - SSE 20 26 11 14 1028.6 1028.6 0.0
08/02:00am 2.5 - - - - SSE 22 26 12 14 1028.5 1028.5 0.0
08/01:30am 2.2 - - - - SSE 22 24 12 13 1028.4 1028.4 0.0
08/01:00am 2.3 - - - - SSE 20 24 11 13 1028.4 1028.4 0.0
08/12:30am 2.0 - - - - S 17 22 9 12 1028.4 1028.4 0.0
08/12:00am 2.6 - - - - SSE 20 24 11 13 1028.5 1028.5 0.0
 
Date/Time
EST
Temp
°C
App
Temp
°C
Dew
Point
Rel
Hum
%
Delta-T
°C
Wind Press
QNH
hPa
Press
MSL
hPa
Rain
since 9 am
mm
Dir
 
Spd
km/h
Gust
km/h
Spd
kts
Gust
kts
07/11:30pm 2.6 - - - - SSE 20 24 11 13 1028.5 1028.5 0.0
07/11:00pm 2.6 - - - - SSE 20 24 11 13 1028.5 1028.5 0.0
07/10:30pm 2.8 - - - - SSE 22 24 12 13 1028.2 1028.2 0.0
07/10:00pm 2.6 - - - - SSE 17 20 9 11 1028.2 1028.2 0.0
07/09:30pm 2.8 - - - - SSE 20 22 11 12 1028.0 1028.0 0.0
07/09:00pm 2.9 - - - - SSE 19 22 10 12 1027.9 1027.9 0.0
07/08:30pm 2.6 - - - - SSE 15 19 8 10 1027.9 1027.9 0.0
07/08:00pm 3.5 - - - - SSE 19 20 10 11 1027.6 1027.6 0.0
07/07:30pm 4.1 - - - - SSE 17 19 9 10 1027.4 1027.4 0.0
07/07:00pm 3.6 - - - - SSE 13 15 7 8 1027.2 1027.2 0.0
07/06:30pm 4.2 - - - - SSE 17 17 9 9 1026.9 1026.9 0.0
07/06:00pm 4.3 - - - - SSE 15 15 8 8 1026.8 1026.8 0.0
07/05:30pm 4.7 - - - - SSE 11 13 6 7 1026.6 1026.6 0.0
07/05:00pm 6.7 - - - - SE 6 7 3 4 1026.3 1026.3 0.0
07/04:30pm 8.2 - - - - ESE 7 11 4 6 1026.1 1026.1 0.0
07/04:00pm 9.1 - - - - SE 11 15 6 8 1025.8 1025.8 0.0
07/03:30pm 9.7 - - - - ESE 13 19 7 10 1025.6 1025.6 0.0
07/03:00pm 10.0 - - - - SE 11 20 6 11 1025.4 1025.4 0.0
07/02:30pm 10.0 - - - - ESE 15 20 8 11 1025.2 1025.2 0.0
07/02:00pm 9.6 - - - - ESE 17 24 9 13 1025.2 1025.2 0.0
07/01:30pm 9.6 - - - - SSE 19 24 10 13 1025.1 1025.1 0.0
07/01:00pm 9.6 - - - - SE 22 28 12 15 1025.2 1025.2 0.0
07/12:30pm 9.3 - - - - SE 24 33 13 18 1025.3 1025.3 0.0
07/12:00pm 8.7 - - - - SE 28 37 15 20 1025.5 1025.5 0.0
07/11:30am 7.8 - - - - SSE 22 32 12 17 1025.7 1025.7 0.0
07/11:00am 6.5 - - - - SSE 24 30 13 16 1025.9 1025.9 0.0
07/10:30am 5.6 - - - - S 24 32 13 17 1025.9 1025.9 0.0
07/10:00am 4.7 - - - - S 22 30 12 16 1025.9 1025.9 0.0
07/09:30am 4.0 - - - - SSE 17 20 9 11 1025.7 1025.7 0.0
07/09:00am 2.8 - - - - S 20 26 11 14 1025.3 1025.3 0.0
07/08:30am 1.9 - - - - S 22 26 12 14 1024.9 1024.9 0.0
07/08:00am 2.1 - - - - SSE 20 30 11 16 1024.8 1024.8 0.0
07/07:30am 0.7 - - - - SSE 11 15 6 8 1024.8 1024.8 0.0
07/07:00am 0.5 - - - - S 9 11 5 6 1024.3 1024.3 0.0
07/06:30am 0.7 - - - - SSE 13 15 7 8 1023.9 1023.9 0.0
07/06:00am 0.5 - - - - S 7 11 4 6 1023.4 1023.4 0.0
07/05:30am 0.6 - - - - S 9 11 5 6 1023.1 1023.1 0.0
07/05:00am 0.9 - - - - SSE 15 20 8 11 1022.7 1022.7 0.0
07/04:30am 1.5 - - - - SSE 19 20 10 11 1022.4 1022.4 0.0
07/04:00am 1.0 - - - - SSE 17 20 9 11 1022.1 1022.1 0.0
07/03:30am 1.2 - - - - SSE 13 17 7 9 1022.2 1022.2 0.0
07/03:00am 1.5 - - - - S 15 20 8 11 1022.3 1022.3 0.0
07/02:30am 1.7 - - - - SSE 15 20 8 11 1022.1 1022.1 0.0
07/02:00am 1.2 - - - - S 7 9 4 5 1021.9 1021.9 0.0
07/01:30am 0.9 - - - - SSE 13 15 7 8 1021.7 1021.7 0.0
07/01:00am 2.1 - - - - S 17 20 9 11 1021.3 1021.3 0.0
07/12:30am 2.3 - - - - S 20 24 11 13 1021.2 1021.2 0.0
07/12:00am 2.6 - - - - S 20 26 11 14 1021.2 1021.2 0.0
 
Date/Time
EST
Temp
°C
App
Temp
°C
Dew
Point
Rel
Hum
%
Delta-T
°C
Wind Press
QNH
hPa
Press
MSL
hPa
Rain
since 9 am
mm
Dir
 
Spd
km/h
Gust
km/h
Spd
kts
Gust
kts
06/11:30pm 2.9 - - - - SSE 17 19 9 10 1021.3 1021.3 0.0
06/11:00pm 4.1 - - - - SSE 24 32 13 17 1021.0 1021.0 0.0
06/10:30pm 4.6 - - - - SE 26 35 14 19 1020.7 1020.7 0.0
06/10:00pm 4.3 - - - - SSE 26 32 14 17 1020.6 1020.6 0.0
06/09:30pm 4.5 - - - - SSE 24 32 13 17 1020.3 1020.3 0.0
06/09:00pm 4.7 - - - - SSE 22 28 12 15 1020.0 1020.0 0.0
06/08:30pm 5.1 - - - - SSE 24 30 13 16 1019.7 1019.7 0.0
06/08:00pm 5.2 - - - - SSE 22 28 12 15 1019.2 1019.2 0.0
06/07:30pm 6.0 - - - - SE 24 30 13 16 1018.8 1018.8 0.0
06/07:00pm 6.2 - - - - SE 26 33 14 18 1018.3 1018.3 0.0
06/06:30pm 7.0 - - - - SE 32 41 17 22 1017.6 1017.7 0.0
06/06:00pm 7.7 - - - - SE 32 35 17 19 1017.2 1017.3 0.0
06/05:30pm 8.2 - - - - SE 28 37 15 20 1016.7 1016.8 0.0
06/05:00pm 8.2 - - - - SE 28 35 15 19 1016.5 1016.6 0.0
06/04:30pm 8.7 - - - - SE 32 39 17 21 1016.1 1016.2 0.0
06/04:00pm 9.3 - - - - SE 26 33 14 18 1015.9 1016.0 0.0
06/03:30pm 9.7 - - - - SE 26 32 14 17 1015.7 1015.8 0.0
06/03:00pm 9.8 - - - - SE 24 33 13 18 1015.3 1015.4 0.0
06/02:30pm 9.8 - - - - SE 20 26 11 14 1015.0 1015.1 0.0
06/02:00pm 9.6 - - - - SE 20 26 11 14 1014.9 1015.0 0.0
06/01:30pm 9.5 - - - - SE 26 35 14 19 1014.9 1015.0 0.0
06/01:00pm 9.8 - - - - SE 24 30 13 16 1014.8 1014.9 0.0
06/12:30pm 9.4 - - - - SE 20 28 11 15 1014.9 1015.0 0.0
06/12:00pm 9.2 - - - - SE 28 39 15 21 1014.9 1015.0 0.0
06/11:30am 8.4 - - - - SSE 24 35 13 19 1015.1 1015.2 0.0
06/11:00am 8.7 - - - - SE 26 32 14 17 1015.2 1015.3 0.0
06/10:30am 8.5 - - - - SSE 26 35 14 19 1015.1 1015.2 0.0
06/10:00am 8.8 - - - - SSE 28 35 15 19 1014.8 1014.9 0.0
06/09:30am 8.2 - - - - SSE 28 37 15 20 1014.8 1014.9 0.0
06/09:00am 7.8 - - - - SSE 30 37 16 20 1014.6 1014.7 21.4
06/08:30am 7.7 - - - - SSE 26 32 14 17 1014.3 1014.4 21.4
06/08:00am 7.6 - - - - SSE 26 33 14 18 1013.9 1014.0 21.4
06/07:30am 7.5 - - - - SSE 26 32 14 17 1013.8 1013.9 21.4
06/07:00am 7.6 - - - - SSE 26 35 14 19 1013.5 1013.6 21.2
06/06:33am 7.5 - - - - SSE 22 32 12 17 1013.3 1013.4 21.2
06/06:30am 7.5 - - - - SSE 22 28 12 15 1013.3 1013.4 21.2
06/06:00am 7.5 - - - - SSE 24 33 13 18 1013.1 1013.2 21.2
06/05:30am 7.6 - - - - SSE 24 30 13 16 1013.1 1013.2 21.2
06/05:00am 7.7 - - - - SSE 22 28 12 15 1013.0 1013.1 21.2
06/04:37am 7.5 - - - - S 19 24 10 13 1013.1 1013.2 21.2
06/04:30am 7.5 - - - - SSE 20 26 11 14 1013.0 1013.1 21.2
06/04:00am 7.6 - - - - S 19 22 10 12 1013.0 1013.1 21.2
06/03:30am 7.8 - - - - S 15 20 8 11 1013.2 1013.3 21.2
06/03:00am 7.8 - - - - S 15 19 8 10 1013.2 1013.3 21.2
06/02:30am 7.9 - - - - S 19 24 10 13 1013.1 1013.2 21.2
06/02:00am 8.1 - - - - S 17 22 9 12 1013.4 1013.5 21.2
06/01:43am 8.1 - - - - SSE 20 26 11 14 1013.3 1013.4 21.2
06/01:30am 8.0 - - - - SSE 19 26 10 14 1013.1 1013.2 21.2
06/01:16am 8.1 - - - - SSE 17 20 9 11 1013.4 1013.5 21.2
06/01:03am 8.1 - - - - SSE 19 26 10 14 1013.5 1013.6 21.2
06/01:00am 8.1 - - - - SSE 20 26 11 14 1013.5 1013.6 21.0
06/12:46am 8.2 - - - - SSE 22 28 12 15 1013.5 1013.6 21.0
06/12:34am 8.1 - - - - SE 24 33 13 18 1013.4 1013.5 20.8
06/12:30am 8.2 - - - - SSE 24 33 13 18 1013.4 1013.5 20.8
06/12:00am 8.3 - - - - SSE 20 24 11 13 1013.5 1013.6 20.6
 
Date/Time
EST
Temp
°C
App
Temp
°C
Dew
Point
Rel
Hum
%
Delta-T
°C
Wind Press
QNH
hPa
Press
MSL
hPa
Rain
since 9 am
mm
Dir
 
Spd
km/h
Gust
km/h
Spd
kts
Gust
kts
05/11:30pm 8.4 - - - - S 17 19 9 10 1013.8 1013.9 19.0
05/11:27pm 8.5 - - - - S 17 19 9 10 1013.9 1014.0 18.8
05/11:00pm 8.6 - - - - SSE 17 19 9 10 1013.8 1013.9 17.6
05/10:30pm 8.8 - - - - SSE 13 15 7 8 1013.9 1014.0 17.2
05/10:00pm 9.0 - - - - SSE 15 20 8 11 1013.9 1014.0 15.2
05/09:30pm 9.2 - - - - S 9 13 5 7 1014.0 1014.1 14.0
05/09:00pm 9.1 - - - - SSE 13 15 7 8 1014.0 1014.1 13.0
05/08:30pm 9.3 - - - - S 9 11 5 6 1014.0 1014.1 12.2
05/08:00pm 9.4 - - - - SSW 11 15 6 8 1014.0 1014.1 10.6
05/07:30pm 9.4 - - - - SSW 7 11 4 6 1013.9 1014.0 9.8
05/07:00pm 9.4 - - - - S 9 11 5 6 1013.6 1013.7 8.8
05/06:30pm 9.5 - - - - S 11 15 6 8 1013.4 1013.5 8.2
05/06:00pm 9.6 - - - - SSW 11 13 6 7 1013.5 1013.6 8.2
05/05:30pm 9.8 - - - - S 9 13 5 7 1013.1 1013.2 7.8
05/05:29pm 9.8 - - - - S 9 13 5 7 1013.1 1013.2 7.8
05/05:04pm 9.9 - - - - S 11 13 6 7 1013.0 1013.1 6.6
05/05:00pm 9.9 - - - - S 11 15 6 8 1013.0 1013.1 6.6
05/04:46pm 10.0 - - - - SSW 13 15 7 8 1012.9 1013.0 6.4
05/04:30pm 10.2 - - - - S 7 15 4 8 1013.0 1013.1 6.0
05/04:12pm 10.2 - - - - CALM 0 0 0 0 1013.1 1013.2 6.0
05/04:00pm 10.2 - - - - CALM 0 0 0 0 1013.1 1013.2 5.8
05/03:30pm 10.1 - - - - SE 4 7 2 4 1013.0 1013.1 4.4
05/03:22pm 10.3 - - - - CALM 0 6 0 3 1013.0 1013.1 4.0
05/03:00pm 10.2 - - - - CALM 0 0 0 0 1012.9 1013.0 3.8
05/02:30pm 10.4 - - - - CALM 0 6 0 3 1013.0 1013.1 3.6
05/02:10pm 10.6 - - - - W 4 6 2 3 1013.1 1013.2 3.6
05/02:00pm 10.4 - - - - W 4 6 2 3 1013.1 1013.2 3.6
05/01:55pm 10.4 - - - - W 4 6 2 3 1013.1 1013.2 3.6
05/01:30pm 10.2 - - - - S 6 9 3 5 1013.2 1013.3 3.6
05/01:00pm 10.0 - - - - S 13 17 7 9 1013.3 1013.4 3.6
05/12:30pm 9.4 - - - - S 13 17 7 9 1013.5 1013.6 3.6
05/12:00pm 8.9 - - - - S 15 20 8 11 1013.7 1013.8 3.6
05/11:30am 8.7 - - - - S 15 20 8 11 1014.0 1014.1 3.6
05/11:00am 8.2 - - - - S 17 20 9 11 1014.4 1014.5 3.2
05/10:30am 7.9 - - - - SSW 11 15 6 8 1014.6 1014.7 2.8
05/10:07am 7.8 - - - - SSW 13 17 7 9 1014.5 1014.6 2.0

Other Formats:

Comma delimited format used in spreadsheet applications
http://www.bom.gov.au/fwo/IDT60801/IDT60801.95960.axf

JavaScript Object Notation format (JSON) in row-major order
http://www.bom.gov.au/fwo/IDT60801/IDT60801.95960.json